sensor_id;sensor_type;location;lat;lon;timestamp;pressure;altitude;pressure_sealevel;temperature;humidity
38054;BME280;23859;50.672;7.164;2023-03-23T00:01:17;96076.09;;;14.20;78.89
38054;BME280;23859;50.672;7.164;2023-03-23T00:03:49;96073.94;;;14.12;78.20
38054;BME280;23859;50.672;7.164;2023-03-23T00:06:17;96070.47;;;14.16;80.03
38054;BME280;23859;50.672;7.164;2023-03-23T00:08:50;96067.50;;;14.28;77.55
38054;BME280;23859;50.672;7.164;2023-03-23T00:11:24;96066.97;;;14.31;78.91
38054;BME280;23859;50.672;7.164;2023-03-23T00:13:52;96082.97;;;14.26;78.94
38054;BME280;23859;50.672;7.164;2023-03-23T00:16:24;96087.22;;;14.37;78.14
38054;BME280;23859;50.672;7.164;2023-03-23T00:19:03;96091.00;;;14.26;79.70
38054;BME280;23859;50.672;7.164;2023-03-23T00:21:32;96095.00;;;14.23;79.63
38054;BME280;23859;50.672;7.164;2023-03-23T00:24:06;96080.03;;;14.32;79.13
38054;BME280;23859;50.672;7.164;2023-03-23T00:26:33;96076.31;;;14.23;79.59
38054;BME280;23859;50.672;7.164;2023-03-23T00:29:02;96085.94;;;14.19;79.82
38054;BME280;23859;50.672;7.164;2023-03-23T00:31:30;96090.50;;;14.19;79.88
38054;BME280;23859;50.672;7.164;2023-03-23T00:33:59;96084.06;;;14.25;78.96
38054;BME280;23859;50.672;7.164;2023-03-23T00:36:27;96078.22;;;14.18;79.79
38054;BME280;23859;50.672;7.164;2023-03-23T00:38:54;96076.59;;;14.22;79.50
38054;BME280;23859;50.672;7.164;2023-03-23T00:41:25;96069.09;;;14.29;78.69
38054;BME280;23859;50.672;7.164;2023-03-23T00:43:56;96070.75;;;14.20;78.90
38054;BME280;23859;50.672;7.164;2023-03-23T00:46:23;96073.91;;;14.22;79.30
38054;BME280;23859;50.672;7.164;2023-03-23T00:48:49;96061.91;;;14.19;79.46
38054;BME280;23859;50.672;7.164;2023-03-23T00:51:17;96062.69;;;14.30;78.13
38054;BME280;23859;50.672;7.164;2023-03-23T00:53:44;96054.75;;;14.15;79.11
38054;BME280;23859;50.672;7.164;2023-03-23T00:56:11;96047.22;;;14.07;79.33
38054;BME280;23859;50.672;7.164;2023-03-23T00:58:37;96054.19;;;14.08;78.96
38054;BME280;23859;50.672;7.164;2023-03-23T01:01:04;96061.13;;;14.19;78.33
38054;BME280;23859;50.672;7.164;2023-03-23T01:03:31;96058.47;;;14.09;78.95
38054;BME280;23859;50.672;7.164;2023-03-23T01:05:57;96058.94;;;14.26;78.06
38054;BME280;23859;50.672;7.164;2023-03-23T01:08:24;96055.53;;;14.10;79.17
38054;BME280;23859;50.672;7.164;2023-03-23T01:10:50;96046.16;;;14.08;79.82
38054;BME280;23859;50.672;7.164;2023-03-23T01:13:17;96041.34;;;14.05;79.35
38054;BME280;23859;50.672;7.164;2023-03-23T01:15:43;96040.81;;;14.18;77.36
38054;BME280;23859;50.672;7.164;2023-03-23T01:18:11;96039.72;;;14.34;76.98
38054;BME280;23859;50.672;7.164;2023-03-23T01:20:37;96020.81;;;14.15;77.84
38054;BME280;23859;50.672;7.164;2023-03-23T01:23:04;96029.59;;;14.16;79.31
38054;BME280;23859;50.672;7.164;2023-03-23T01:25:34;96037.88;;;14.24;77.56
38054;BME280;23859;50.672;7.164;2023-03-23T01:28:01;96020.00;;;14.05;78.46
38054;BME280;23859;50.672;7.164;2023-03-23T01:30:27;96018.94;;;14.11;78.31
38054;BME280;23859;50.672;7.164;2023-03-23T01:32:54;96009.63;;;13.98;79.06
38054;BME280;23859;50.672;7.164;2023-03-23T01:35:21;96003.97;;;14.20;78.28
38054;BME280;23859;50.672;7.164;2023-03-23T01:37:47;95998.63;;;14.05;78.42
38054;BME280;23859;50.672;7.164;2023-03-23T01:40:15;96002.91;;;14.06;78.23
38054;BME280;23859;50.672;7.164;2023-03-23T01:42:41;96004.00;;;14.00;78.15
38054;BME280;23859;50.672;7.164;2023-03-23T01:47:47;96007.47;;;14.10;77.24
38054;BME280;23859;50.672;7.164;2023-03-23T01:50:17;96020.56;;;13.97;78.32
38054;BME280;23859;50.672;7.164;2023-03-23T01:52:44;96014.69;;;13.90;78.19
38054;BME280;23859;50.672;7.164;2023-03-23T01:55:11;96025.91;;;13.92;77.81
38054;BME280;23859;50.672;7.164;2023-03-23T01:57:37;96032.81;;;14.08;76.76
38054;BME280;23859;50.672;7.164;2023-03-23T02:00:07;96020.03;;;14.15;77.24
38054;BME280;23859;50.672;7.164;2023-03-23T02:02:37;96029.59;;;14.21;77.20
38054;BME280;23859;50.672;7.164;2023-03-23T02:05:11;96037.09;;;13.94;79.10
38054;BME280;23859;50.672;7.164;2023-03-23T02:07:37;96041.38;;;13.95;79.67
38054;BME280;23859;50.672;7.164;2023-03-23T02:10:04;96041.94;;;13.92;79.21
38054;BME280;23859;50.672;7.164;2023-03-23T02:12:30;96038.72;;;13.95;79.18
38054;BME280;23859;50.672;7.164;2023-03-23T02:14:57;96039.78;;;13.84;81.01
38054;BME280;23859;50.672;7.164;2023-03-23T02:17:31;96040.06;;;13.83;80.76
38054;BME280;23859;50.672;7.164;2023-03-23T02:20:17;95952.94;;;13.24;81.79
38054;BME280;23859;50.672;7.164;2023-03-23T02:26:17;96030.47;;;13.82;81.81
38054;BME280;23859;50.672;7.164;2023-03-23T02:34:17;96015.03;;;13.44;85.51
38054;BME280;23859;50.672;7.164;2023-03-23T02:36:52;96007.84;;;13.34;86.48
38054;BME280;23859;50.672;7.164;2023-03-23T02:39:28;96013.19;;;13.39;85.91
38054;BME280;23859;50.672;7.164;2023-03-23T02:42:02;96008.91;;;13.33;86.80
38054;BME280;23859;50.672;7.164;2023-03-23T02:44:32;96008.63;;;13.35;86.90
38054;BME280;23859;50.672;7.164;2023-03-23T02:47:02;96012.91;;;13.36;87.84
38054;BME280;23859;50.672;7.164;2023-03-23T02:49:32;96017.44;;;13.35;86.95
38054;BME280;23859;50.672;7.164;2023-03-23T02:52:02;95997.69;;;13.41;86.40
38054;BME280;23859;50.672;7.164;2023-03-23T02:54:30;95992.09;;;13.38;87.83
38054;BME280;23859;50.672;7.164;2023-03-23T02:56:56;95979.84;;;13.12;90.46
38054;BME280;23859;50.672;7.164;2023-03-23T02:59:23;95977.72;;;13.14;90.19
38054;BME280;23859;50.672;7.164;2023-03-23T03:01:55;95993.44;;;13.01;91.50
38054;BME280;23859;50.672;7.164;2023-03-23T03:04:25;95996.59;;;12.88;92.49
38054;BME280;23859;50.672;7.164;2023-03-23T03:07:23;96000.56;;;12.85;92.66
38054;BME280;23859;50.672;7.164;2023-03-23T03:09:56;95982.78;;;12.96;91.63
38054;BME280;23859;50.672;7.164;2023-03-23T03:12:42;95986.50;;;12.95;91.27
38054;BME280;23859;50.672;7.164;2023-03-23T03:15:27;96001.44;;;13.11;90.92
38054;BME280;23859;50.672;7.164;2023-03-23T03:20:31;95973.44;;;13.28;89.07
38054;BME280;23859;50.672;7.164;2023-03-23T03:22:59;95965.44;;;13.18;89.68
38054;BME280;23859;50.672;7.164;2023-03-23T03:25:27;95959.06;;;13.24;89.76
38054;BME280;23859;50.672;7.164;2023-03-23T03:27:56;95939.34;;;13.15;90.00
38054;BME280;23859;50.672;7.164;2023-03-23T03:30:26;95952.66;;;13.30;88.98
38054;BME280;23859;50.672;7.164;2023-03-23T03:32:57;95928.66;;;13.25;89.04
38054;BME280;23859;50.672;7.164;2023-03-23T03:35:26;95930.78;;;13.28;88.85
38054;BME280;23859;50.672;7.164;2023-03-23T03:37:52;95925.75;;;13.17;88.98
38054;BME280;23859;50.672;7.164;2023-03-23T03:40:21;95935.06;;;13.29;88.70
38054;BME280;23859;50.672;7.164;2023-03-23T03:42:47;95937.72;;;13.29;88.57
38054;BME280;23859;50.672;7.164;2023-03-23T03:45:16;95936.09;;;13.33;87.91
38054;BME280;23859;50.672;7.164;2023-03-23T03:47:43;95957.44;;;13.33;88.15
38054;BME280;23859;50.672;7.164;2023-03-23T03:50:10;95945.47;;;13.01;88.55
38054;BME280;23859;50.672;7.164;2023-03-23T03:52:36;96006.75;;;13.30;88.58
38054;BME280;23859;50.672;7.164;2023-03-23T03:55:04;96008.38;;;13.27;88.99
38054;BME280;23859;50.672;7.164;2023-03-23T03:57:31;96003.03;;;13.36;87.69
38054;BME280;23859;50.672;7.164;2023-03-23T03:59:57;96002.75;;;13.43;88.54
38054;BME280;23859;50.672;7.164;2023-03-23T04:02:23;96007.31;;;13.42;87.91
38054;BME280;23859;50.672;7.164;2023-03-23T04:04:50;96001.19;;;13.42;88.41
38054;BME280;23859;50.672;7.164;2023-03-23T04:07:18;96016.63;;;13.50;88.36
38054;BME280;23859;50.672;7.164;2023-03-23T04:09:45;96003.00;;;13.56;87.67
38054;BME280;23859;50.672;7.164;2023-03-23T04:12:12;95987.56;;;13.48;88.23
38054;BME280;23859;50.672;7.164;2023-03-23T04:14:39;95976.91;;;13.48;87.99
38054;BME280;23859;50.672;7.164;2023-03-23T04:17:05;95983.56;;;13.56;88.12
38054;BME280;23859;50.672;7.164;2023-03-23T04:19:32;96001.97;;;13.47;89.09
38054;BME280;23859;50.672;7.164;2023-03-23T04:21:59;95984.34;;;13.46;89.20
38054;BME280;23859;50.672;7.164;2023-03-23T04:24:26;95990.47;;;13.67;88.66
38054;BME280;23859;50.672;7.164;2023-03-23T04:26:54;95981.97;;;13.50;89.75
38054;BME280;23859;50.672;7.164;2023-03-23T04:29:20;95986.25;;;13.41;90.21
38054;BME280;23859;50.672;7.164;2023-03-23T04:31:46;95991.31;;;13.32;91.11
38054;BME280;23859;50.672;7.164;2023-03-23T04:34:12;96007.03;;;13.44;90.57
38054;BME280;23859;50.672;7.164;2023-03-23T04:36:41;96012.09;;;13.40;90.52
38054;BME280;23859;50.672;7.164;2023-03-23T04:39:08;95911.31;;;12.68;91.25
38054;BME280;23859;50.672;7.164;2023-03-23T04:41:36;96003.03;;;13.27;92.07
38054;BME280;23859;50.672;7.164;2023-03-23T04:44:03;95996.38;;;13.29;91.27
38054;BME280;23859;50.672;7.164;2023-03-23T04:46:30;96004.66;;;13.28;91.77
38054;BME280;23859;50.672;7.164;2023-03-23T04:48:57;96003.03;;;13.31;91.21
38054;BME280;23859;50.672;7.164;2023-03-23T04:51:26;95997.69;;;13.41;90.45
38054;BME280;23859;50.672;7.164;2023-03-23T04:53:54;95998.50;;;13.32;91.05
38054;BME280;23859;50.672;7.164;2023-03-23T04:56:20;96000.38;;;13.31;90.95
38054;BME280;23859;50.672;7.164;2023-03-23T04:58:47;95995.31;;;13.20;91.97
38054;BME280;23859;50.672;7.164;2023-03-23T05:01:13;96007.56;;;13.11;92.43
38054;BME280;23859;50.672;7.164;2023-03-23T05:03:40;96009.97;;;13.13;92.43
38054;BME280;23859;50.672;7.164;2023-03-23T05:06:07;95999.59;;;13.21;91.83
38054;BME280;23859;50.672;7.164;2023-03-23T05:08:33;95998.75;;;13.35;90.82
38054;BME280;23859;50.672;7.164;2023-03-23T05:11:00;95993.44;;;13.35;90.95
38054;BME280;23859;50.672;7.164;2023-03-23T05:13:29;95999.59;;;13.26;90.93
38054;BME280;23859;50.672;7.164;2023-03-23T05:15:56;95992.94;;;13.19;91.36
38054;BME280;23859;50.672;7.164;2023-03-23T05:18:22;95984.91;;;13.14;91.71
38054;BME280;23859;50.672;7.164;2023-03-23T05:20:48;95999.84;;;13.20;91.50
38054;BME280;23859;50.672;7.164;2023-03-23T05:23:18;95994.50;;;13.10;91.91
38054;BME280;23859;50.672;7.164;2023-03-23T05:25:54;95986.50;;;13.10;91.54
38054;BME280;23859;50.672;7.164;2023-03-23T05:28:21;95994.22;;;13.06;92.02
38054;BME280;23859;50.672;7.164;2023-03-23T05:30:48;95984.91;;;13.04;91.90
38054;BME280;23859;50.672;7.164;2023-03-23T05:33:15;95989.72;;;13.22;90.75
38054;BME280;23859;50.672;7.164;2023-03-23T05:35:41;95982.50;;;13.12;91.15
38054;BME280;23859;50.672;7.164;2023-03-23T05:38:07;95991.84;;;13.20;90.42
38054;BME280;23859;50.672;7.164;2023-03-23T05:40:33;95995.03;;;13.17;90.55
38054;BME280;23859;50.672;7.164;2023-03-23T05:42:59;96015.31;;;13.13;90.94
38054;BME280;23859;50.672;7.164;2023-03-23T05:45:26;96022.50;;;13.17;90.32
38054;BME280;23859;50.672;7.164;2023-03-23T05:47:52;96005.44;;;13.23;89.80
38054;BME280;23859;50.672;7.164;2023-03-23T05:50:19;96029.16;;;13.29;88.87
38054;BME280;23859;50.672;7.164;2023-03-23T05:52:45;96028.91;;;13.31;88.50
38054;BME280;23859;50.672;7.164;2023-03-23T05:55:12;96006.75;;;13.30;88.51
38054;BME280;23859;50.672;7.164;2023-03-23T05:57:38;96006.25;;;13.33;88.33
38054;BME280;23859;50.672;7.164;2023-03-23T06:00:05;96020.63;;;13.42;88.09
38054;BME280;23859;50.672;7.164;2023-03-23T06:02:40;96019.03;;;13.36;88.63
38054;BME280;23859;50.672;7.164;2023-03-23T06:05:10;96024.13;;;13.53;87.30
38054;BME280;23859;50.672;7.164;2023-03-23T06:07:36;96026.53;;;13.39;87.76
38054;BME280;23859;50.672;7.164;2023-03-23T06:10:04;96016.91;;;13.38;87.31
38054;BME280;23859;50.672;7.164;2023-03-23T06:12:31;96024.63;;;13.45;86.89
38054;BME280;23859;50.672;7.164;2023-03-23T06:14:57;96019.56;;;13.43;86.45
38054;BME280;23859;50.672;7.164;2023-03-23T06:17:23;96023.84;;;13.44;85.39
38054;BME280;23859;50.672;7.164;2023-03-23T06:19:49;96036.34;;;13.49;84.90
38054;BME280;23859;50.672;7.164;2023-03-23T06:22:17;96015.56;;;13.61;84.30
38054;BME280;23859;50.672;7.164;2023-03-23T06:24:43;96020.09;;;13.55;84.20
38054;BME280;23859;50.672;7.164;2023-03-23T06:27:10;96018.50;;;13.54;84.78
38054;BME280;23859;50.672;7.164;2023-03-23T06:29:36;96024.91;;;13.58;84.28
38054;BME280;23859;50.672;7.164;2023-03-23T06:32:04;96031.28;;;13.62;84.34
38054;BME280;23859;50.672;7.164;2023-03-23T06:34:31;96042.78;;;13.63;84.58
38054;BME280;23859;50.672;7.164;2023-03-23T06:36:58;96050.50;;;13.64;84.13
38054;BME280;23859;50.672;7.164;2023-03-23T06:39:26;96043.03;;;13.61;84.59
38054;BME280;23859;50.672;7.164;2023-03-23T06:41:52;96035.56;;;13.68;83.82
38054;BME280;23859;50.672;7.164;2023-03-23T06:44:18;96040.88;;;13.68;84.32
38054;BME280;23859;50.672;7.164;2023-03-23T06:46:44;96036.59;;;13.72;84.35
38054;BME280;23859;50.672;7.164;2023-03-23T06:49:11;96046.75;;;13.75;84.12
38054;BME280;23859;50.672;7.164;2023-03-23T06:51:37;96058.47;;;13.84;83.44
38054;BME280;23859;50.672;7.164;2023-03-23T06:54:04;96064.34;;;14.11;81.91
38054;BME280;23859;50.672;7.164;2023-03-23T06:56:30;96070.72;;;14.05;82.18
38054;BME280;23859;50.672;7.164;2023-03-23T06:58:56;96074.47;;;13.99;82.17
38054;BME280;23859;50.672;7.164;2023-03-23T07:01:22;96065.66;;;14.18;81.14
38054;BME280;23859;50.672;7.164;2023-03-23T07:03:48;96070.47;;;14.16;81.49
38054;BME280;23859;50.672;7.164;2023-03-23T07:06:15;96080.06;;;14.22;80.34
38054;BME280;23859;50.672;7.164;2023-03-23T07:08:42;96082.69;;;14.37;80.28
38054;BME280;23859;50.672;7.164;2023-03-23T07:11:08;96012.06;;;13.80;80.38
38054;BME280;23859;50.672;7.164;2023-03-23T07:13:35;96088.22;;;14.61;79.39
38054;BME280;23859;50.672;7.164;2023-03-23T07:16:05;96089.91;;;14.32;79.86
38054;BME280;23859;50.672;7.164;2023-03-23T07:18:32;96084.31;;;14.33;79.94
38054;BME280;23859;50.672;7.164;2023-03-23T07:20:58;96088.88;;;14.28;80.84
38054;BME280;23859;50.672;7.164;2023-03-23T07:23:24;96088.34;;;14.31;79.60
38054;BME280;23859;50.672;7.164;2023-03-23T07:25:51;96072.53;;;14.34;79.69
38054;BME280;23859;50.672;7.164;2023-03-23T07:28:17;96077.09;;;14.34;79.81
38054;BME280;23859;50.672;7.164;2023-03-23T07:30:44;95990.41;;;13.87;78.89
38054;BME280;23859;50.672;7.164;2023-03-23T07:33:10;96088.25;;;14.56;78.42
38054;BME280;23859;50.672;7.164;2023-03-23T07:35:37;96082.09;;;14.60;77.41
38054;BME280;23859;50.672;7.164;2023-03-23T07:38:04;96089.22;;;14.74;77.28
38054;BME280;23859;50.672;7.164;2023-03-23T07:40:31;96088.69;;;14.77;76.46
38054;BME280;23859;50.672;7.164;2023-03-23T07:43:01;96095.88;;;14.82;75.70
38054;BME280;23859;50.672;7.164;2023-03-23T07:45:28;96091.84;;;14.94;74.64
38054;BME280;23859;50.672;7.164;2023-03-23T07:47:55;96089.41;;;14.93;77.01
38054;BME280;23859;50.672;7.164;2023-03-23T07:50:21;96090.16;;;15.08;74.44
38054;BME280;23859;50.672;7.164;2023-03-23T07:52:59;96087.19;;;15.10;72.87
38054;BME280;23859;50.672;7.164;2023-03-23T07:55:26;96091.66;;;15.29;70.41
38054;BME280;23859;50.672;7.164;2023-03-23T07:57:54;96078.66;;;15.08;71.63
38054;BME280;23859;50.672;7.164;2023-03-23T08:00:22;96080.50;;;15.07;71.98
38054;BME280;23859;50.672;7.164;2023-03-23T08:02:57;96091.44;;;15.16;71.38
38054;BME280;23859;50.672;7.164;2023-03-23T08:05:24;96080.94;;;15.29;71.09
38054;BME280;23859;50.672;7.164;2023-03-23T08:07:52;96084.38;;;15.39;69.44
38054;BME280;23859;50.672;7.164;2023-03-23T08:10:21;96088.16;;;15.33;70.34
38054;BME280;23859;50.672;7.164;2023-03-23T08:12:54;96083.59;;;15.34;70.57
38054;BME280;23859;50.672;7.164;2023-03-23T08:15:21;96084.88;;;15.41;71.12
38054;BME280;23859;50.672;7.164;2023-03-23T08:17:48;96092.59;;;15.48;69.35
38054;BME280;23859;50.672;7.164;2023-03-23T08:20:14;96097.34;;;15.56;68.96
38054;BME280;23859;50.672;7.164;2023-03-23T08:22:43;96096.25;;;15.62;68.63
38054;BME280;23859;50.672;7.164;2023-03-23T08:25:12;96091.00;;;15.47;68.64
38054;BME280;23859;50.672;7.164;2023-03-23T08:27:38;96088.81;;;15.54;68.68
38054;BME280;23859;50.672;7.164;2023-03-23T08:30:11;96088.81;;;15.54;69.70
38054;BME280;23859;50.672;7.164;2023-03-23T08:32:38;96086.22;;;15.39;69.19
38054;BME280;23859;50.672;7.164;2023-03-23T08:35:06;96095.34;;;15.33;69.71
38054;BME280;23859;50.672;7.164;2023-03-23T08:37:32;96093.81;;;15.22;69.85
38054;BME280;23859;50.672;7.164;2023-03-23T08:39:58;96094.59;;;15.28;71.22
38054;BME280;23859;50.672;7.164;2023-03-23T08:42:25;96101.28;;;15.30;68.96
38054;BME280;23859;50.672;7.164;2023-03-23T08:44:52;96095.94;;;15.30;68.80
38054;BME280;23859;50.672;7.164;2023-03-23T08:47:18;96098.59;;;15.30;68.09
38054;BME280;23859;50.672;7.164;2023-03-23T08:49:45;96090.53;;;15.35;69.68
38054;BME280;23859;50.672;7.164;2023-03-23T08:52:11;96104.81;;;15.64;68.31
38054;BME280;23859;50.672;7.164;2023-03-23T08:54:37;96102.88;;;15.69;68.48
38054;BME280;23859;50.672;7.164;2023-03-23T08:57:04;96095.97;;;15.92;66.97
38054;BME280;23859;50.672;7.164;2023-03-23T08:59:30;96110.94;;;15.98;67.61
38054;BME280;23859;50.672;7.164;2023-03-23T09:01:57;96106.44;;;16.21;66.01
38054;BME280;23859;50.672;7.164;2023-03-23T09:04:23;96110.78;;;15.84;67.74
38054;BME280;23859;50.672;7.164;2023-03-23T09:06:50;96105.13;;;15.91;66.87
38054;BME280;23859;50.672;7.164;2023-03-23T09:09:16;96110.16;;;15.97;67.04
38054;BME280;23859;50.672;7.164;2023-03-23T09:11:42;96120.63;;;15.94;67.14
38054;BME280;23859;50.672;7.164;2023-03-23T09:14:08;96110.78;;;15.84;66.69
38054;BME280;23859;50.672;7.164;2023-03-23T09:16:34;96119.63;;;15.85;66.28
38054;BME280;23859;50.672;7.164;2023-03-23T09:19:01;96113.56;;;16.02;66.26
38054;BME280;23859;50.672;7.164;2023-03-23T09:21:28;96119.22;;;16.29;64.95
38054;BME280;23859;50.672;7.164;2023-03-23T09:23:55;96128.81;;;16.35;65.13
38054;BME280;23859;50.672;7.164;2023-03-23T09:26:25;96036.25;;;15.68;66.26
38054;BME280;23859;50.672;7.164;2023-03-23T09:28:52;96133.75;;;16.23;66.14
38054;BME280;23859;50.672;7.164;2023-03-23T09:31:18;96140.94;;;16.56;65.09
38054;BME280;23859;50.672;7.164;2023-03-23T09:33:48;96139.44;;;16.45;65.37
38054;BME280;23859;50.672;7.164;2023-03-23T09:36:18;96131.84;;;16.29;65.39
38054;BME280;23859;50.672;7.164;2023-03-23T09:38:49;96139.41;;;16.50;66.30
38054;BME280;23859;50.672;7.164;2023-03-23T09:44:03;96141.81;;;16.98;62.48
38054;BME280;23859;50.672;7.164;2023-03-23T09:49:56;96149.59;;;17.41;60.52
38054;BME280;23859;50.672;7.164;2023-03-23T09:52:07;96150.97;;;17.57;61.01
38054;BME280;23859;50.672;7.164;2023-03-23T09:54:55;96159.69;;;17.86;60.08
38054;BME280;23859;50.672;7.164;2023-03-23T10:00:16;96171.81;;;18.02;59.62
38054;BME280;23859;50.672;7.164;2023-03-23T10:02:52;96175.84;;;18.18;59.73
38054;BME280;23859;50.672;7.164;2023-03-23T10:05:35;96164.06;;;18.32;59.23
38054;BME280;23859;50.672;7.164;2023-03-23T10:08:20;96163.59;;;18.44;58.33
38054;BME280;23859;50.672;7.164;2023-03-23T10:16:36;96149.78;;;17.03;63.29
38054;BME280;23859;50.672;7.164;2023-03-23T10:19:17;96144.63;;;16.65;65.05
38054;BME280;23859;50.672;7.164;2023-03-23T10:21:52;96146.09;;;16.53;67.03
38054;BME280;23859;50.672;7.164;2023-03-23T10:24:23;96144.66;;;16.60;65.87
38054;BME280;23859;50.672;7.164;2023-03-23T10:29:38;96148.38;;;16.64;65.95
38054;BME280;23859;50.672;7.164;2023-03-23T10:32:14;96164.16;;;17.12;66.02
38054;BME280;23859;50.672;7.164;2023-03-23T10:44:54;96202.69;;;18.55;61.11
38054;BME280;23859;50.672;7.164;2023-03-23T10:47:22;96184.88;;;18.27;61.93
38054;BME280;23859;50.672;7.164;2023-03-23T10:49:53;96169.41;;;18.01;63.30
38054;BME280;23859;50.672;7.164;2023-03-23T10:52:43;96178.28;;;17.64;63.88
38054;BME280;23859;50.672;7.164;2023-03-23T10:55:11;96168.50;;;17.32;65.43
38054;BME280;23859;50.672;7.164;2023-03-23T10:57:40;96161.53;;;17.07;66.02
38054;BME280;23859;50.672;7.164;2023-03-23T11:02:47;96166.16;;;16.55;68.48
38054;BME280;23859;50.672;7.164;2023-03-23T11:05:26;96164.50;;;16.59;68.93
38054;BME280;23859;50.672;7.164;2023-03-23T11:07:57;96146.56;;;16.26;70.05
38054;BME280;23859;50.672;7.164;2023-03-23T11:10:26;96157.00;;;16.33;70.17
38054;BME280;23859;50.672;7.164;2023-03-23T11:12:56;96160.06;;;16.73;68.39
38054;BME280;23859;50.672;7.164;2023-03-23T11:15:36;96094.28;;;16.80;67.63
38054;BME280;23859;50.672;7.164;2023-03-23T11:18:36;96180.72;;;17.61;64.56
38054;BME280;23859;50.672;7.164;2023-03-23T11:21:04;96171.19;;;17.73;64.26
38054;BME280;23859;50.672;7.164;2023-03-23T11:23:36;96164.41;;;17.94;62.78
38054;BME280;23859;50.672;7.164;2023-03-23T11:26:16;96159.25;;;17.79;63.23
38054;BME280;23859;50.672;7.164;2023-03-23T11:28:47;96182.50;;;17.70;63.12
38054;BME280;23859;50.672;7.164;2023-03-23T11:31:16;96161.06;;;17.65;64.26
38054;BME280;23859;50.672;7.164;2023-03-23T11:34:03;96174.56;;;17.79;64.40
38054;BME280;23859;50.672;7.164;2023-03-23T11:36:40;96175.50;;;17.88;62.75
38054;BME280;23859;50.672;7.164;2023-03-23T11:39:28;96177.25;;;17.79;62.71
38054;BME280;23859;50.672;7.164;2023-03-23T11:41:57;96164.13;;;17.77;62.36
38054;BME280;23859;50.672;7.164;2023-03-23T11:44:26;96146.56;;;17.66;62.55
38054;BME280;23859;50.672;7.164;2023-03-23T11:47:09;96153.56;;;17.26;63.10
38054;BME280;23859;50.672;7.164;2023-03-23T11:50:10;96159.09;;;18.26;60.10
38054;BME280;23859;50.672;7.164;2023-03-23T11:52:49;96165.09;;;19.08;58.14
38054;BME280;23859;50.672;7.164;2023-03-23T11:55:24;96151.50;;;18.86;56.84
38054;BME280;23859;50.672;7.164;2023-03-23T11:57:54;96166.19;;;19.21;56.34
38054;BME280;23859;50.672;7.164;2023-03-23T12:00:22;96168.56;;;18.82;57.55
38054;BME280;23859;50.672;7.164;2023-03-23T12:03:08;96162.25;;;18.60;59.32
38054;BME280;23859;50.672;7.164;2023-03-23T12:05:53;96182.63;;;18.92;58.14
38054;BME280;23859;50.672;7.164;2023-03-23T12:13:31;96173.28;;;18.45;57.27
38054;BME280;23859;50.672;7.164;2023-03-23T12:19:24;96180.06;;;19.41;55.24
38054;BME280;23859;50.672;7.164;2023-03-23T12:30:12;96176.09;;;19.12;56.42
38054;BME280;23859;50.672;7.164;2023-03-23T12:32:42;96186.31;;;18.51;56.44
38054;BME280;23859;50.672;7.164;2023-03-23T12:38:08;96174.03;;;17.95;58.32
38054;BME280;23859;50.672;7.164;2023-03-23T12:40:48;96165.38;;;17.66;58.91
38054;BME280;23859;50.672;7.164;2023-03-23T12:48:29;96160.28;;;17.46;60.73
38054;BME280;23859;50.672;7.164;2023-03-23T12:53:44;96152.16;;;17.33;60.03
38054;BME280;23859;50.672;7.164;2023-03-23T12:56:21;96144.44;;;17.27;60.69
38054;BME280;23859;50.672;7.164;2023-03-23T12:58:53;96140.91;;;17.08;60.61
38054;BME280;23859;50.672;7.164;2023-03-23T13:01:35;96147.03;;;17.32;60.97
38054;BME280;23859;50.672;7.164;2023-03-23T13:06:48;96142.28;;;17.47;60.49
38054;BME280;23859;50.672;7.164;2023-03-23T13:11:56;96164.47;;;17.52;60.24
38054;BME280;23859;50.672;7.164;2023-03-23T13:28:19;96151.41;;;17.46;60.63
38054;BME280;23859;50.672;7.164;2023-03-23T13:31:11;96148.44;;;17.24;61.43
38054;BME280;23859;50.672;7.164;2023-03-23T13:33:38;96149.47;;;17.88;59.91
38054;BME280;23859;50.672;7.164;2023-03-23T13:36:11;96143.59;;;18.18;58.79
38054;BME280;23859;50.672;7.164;2023-03-23T13:38:44;96145.31;;;18.59;58.18
38054;BME280;23859;50.672;7.164;2023-03-23T13:41:12;96145.72;;;18.53;58.39
38054;BME280;23859;50.672;7.164;2023-03-23T13:43:41;96152.69;;;18.22;58.74
38054;BME280;23859;50.672;7.164;2023-03-23T13:51:47;96152.00;;;18.62;57.27
38054;BME280;23859;50.672;7.164;2023-03-23T13:56:56;96154.75;;;19.29;55.85
38054;BME280;23859;50.672;7.164;2023-03-23T13:59:31;96193.25;;;19.78;54.32
38054;BME280;23859;50.672;7.164;2023-03-23T14:04:52;96206.91;;;21.81;47.57
38054;BME280;23859;50.672;7.164;2023-03-23T14:07:18;96170.63;;;20.36;51.12
38054;BME280;23859;50.672;7.164;2023-03-23T14:09:45;96091.47;;;19.75;52.65
38054;BME280;23859;50.672;7.164;2023-03-23T14:12:20;96167.31;;;19.82;53.45
38054;BME280;23859;50.672;7.164;2023-03-23T14:14:50;96163.94;;;20.11;54.37
38054;BME280;23859;50.672;7.164;2023-03-23T14:17:23;96180.47;;;19.97;52.37
38054;BME280;23859;50.672;7.164;2023-03-23T14:19:52;96159.16;;;19.11;55.81
38054;BME280;23859;50.672;7.164;2023-03-23T14:22:53;96162.19;;;18.91;56.10
38054;BME280;23859;50.672;7.164;2023-03-23T14:25:15;96134.03;;;18.57;57.82
38054;BME280;23859;50.672;7.164;2023-03-23T14:27:42;96148.56;;;19.01;56.52
38054;BME280;23859;50.672;7.164;2023-03-23T14:30:21;96146.94;;;18.73;57.43
38054;BME280;23859;50.672;7.164;2023-03-23T14:32:47;96150.72;;;18.72;56.98
38054;BME280;23859;50.672;7.164;2023-03-23T14:35:23;96141.66;;;18.69;58.22
38054;BME280;23859;50.672;7.164;2023-03-23T14:37:51;96153.94;;;19.01;58.14
38054;BME280;23859;50.672;7.164;2023-03-23T14:40:18;96139.63;;;18.61;58.64
38054;BME280;23859;50.672;7.164;2023-03-23T14:42:45;96141.22;;;18.62;58.37
38054;BME280;23859;50.672;7.164;2023-03-23T14:45:17;96145.00;;;17.97;59.94
38054;BME280;23859;50.672;7.164;2023-03-23T14:47:47;96132.88;;;18.00;59.66
38054;BME280;23859;50.672;7.164;2023-03-23T14:50:36;96140.41;;;17.98;60.33
38054;BME280;23859;50.672;7.164;2023-03-23T14:53:22;96120.00;;;17.83;59.97
38054;BME280;23859;50.672;7.164;2023-03-23T14:55:50;96126.16;;;17.65;61.39